createdAt,value
2023-02-18T00:00:29.029Z,9.37
2023-02-18T00:05:32.147Z,3.90
2023-02-18T00:10:35.239Z,4.33
2023-02-18T00:15:40.139Z,6.40
2023-02-18T00:20:43.198Z,5.97
2023-02-18T00:25:46.345Z,3.60
2023-02-18T00:30:50.955Z,6.80
2023-02-18T00:35:54.294Z,8.57
2023-02-18T00:40:57.471Z,5.90
2023-02-18T00:46:02.263Z,4.20
2023-02-18T00:51:06.234Z,5.80
2023-02-18T00:56:09.700Z,4.70
2023-02-18T01:01:14.806Z,5.27
2023-02-18T01:06:18.104Z,4.50
2023-02-18T01:11:22.269Z,5.17
2023-02-18T01:16:27.271Z,5.93
2023-02-18T01:21:30.620Z,7.90
2023-02-18T01:26:33.742Z,4.93
2023-02-18T01:31:39.246Z,4.77
2023-02-18T01:36:42.349Z,6.23
2023-02-18T01:41:46.309Z,4.87
2023-02-18T01:46:51.208Z,7.60
2023-02-18T01:51:58.070Z,3.70
2023-02-18T01:57:06.309Z,6.47
2023-02-18T02:02:16.995Z,5.67
2023-02-18T02:07:22.648Z,4.80
2023-02-18T02:12:45.372Z,8.07
2023-02-18T02:18:03.566Z,6.27
2023-02-18T02:23:36.303Z,6.60
2023-02-18T02:29:07.359Z,4.03
2023-02-18T02:34:49.973Z,7.67
2023-02-18T02:40:03.505Z,5.00
2023-02-18T02:45:12.554Z,4.23
2023-02-18T02:50:21.835Z,3.10
2023-02-18T02:55:26.394Z,4.43
2023-02-18T03:00:40.138Z,4.77
2023-02-18T03:05:56.649Z,4.73
2023-02-18T03:11:06.333Z,6.10
2023-02-18T03:16:21.123Z,3.57
2023-02-18T03:21:28.977Z,5.13
2023-02-18T03:26:36.008Z,9.77
2023-02-18T03:31:41.871Z,6.30
2023-02-18T03:36:45.709Z,4.40
2023-02-18T03:41:51.011Z,7.87
2023-02-18T03:46:54.761Z,4.90
2023-02-18T03:51:57.913Z,8.53
2023-02-18T03:57:02.443Z,4.27
2023-02-18T04:02:05.541Z,4.17
2023-02-18T04:07:08.545Z,7.93
2023-02-18T04:12:13.084Z,8.20
2023-02-18T04:17:16.443Z,5.93
2023-02-18T04:22:19.614Z,6.27
2023-02-18T04:27:25.267Z,5.53
2023-02-18T04:32:28.609Z,6.80
2023-02-18T04:37:32.148Z,6.07
2023-02-18T04:42:36.914Z,11.27
2023-02-18T04:47:40.105Z,8.13
2023-02-18T04:52:43.293Z,9.20
2023-02-18T04:57:47.954Z,10.27
2023-02-18T05:02:51.098Z,10.90
2023-02-18T05:07:54.273Z,10.67
2023-02-18T05:13:00.089Z,10.47
2023-02-18T05:18:03.227Z,11.07
2023-02-18T05:23:06.445Z,10.20
2023-02-18T05:28:11.022Z,11.03
2023-02-18T05:33:14.347Z,8.07
2023-02-18T05:38:17.490Z,7.83
2023-02-18T05:43:22.029Z,9.43
2023-02-18T05:48:25.150Z,11.10
2023-02-18T05:53:28.307Z,11.67
2023-02-18T05:58:32.926Z,14.17
2023-02-18T06:03:36.249Z,10.80
2023-02-18T06:08:39.534Z,10.80
2023-02-18T06:13:44.208Z,11.93
2023-02-18T06:18:47.699Z,11.23
2023-02-18T06:23:50.873Z,14.37
2023-02-18T06:28:55.511Z,15.10
2023-02-18T06:33:58.767Z,13.07
2023-02-18T06:39:04.567Z,14.43
2023-02-18T06:44:09.181Z,14.17
2023-02-18T06:49:16.869Z,17.17
2023-02-18T06:54:20.380Z,13.43
2023-02-18T06:59:25.217Z,13.27
2023-02-18T07:04:31.013Z,14.27
2023-02-18T07:09:34.194Z,16.00
2023-02-18T07:14:38.712Z,14.03
2023-02-18T07:19:42.651Z,15.87
2023-02-18T07:24:46.497Z,17.03
2023-02-18T07:29:53.391Z,11.57
2023-02-18T07:34:56.479Z,14.10
2023-02-18T07:39:59.811Z,10.53
2023-02-18T07:45:18.624Z,11.13
2023-02-18T07:50:22.027Z,9.47
2023-02-18T07:55:25.154Z,7.33
2023-02-18T08:00:29.738Z,7.23
2023-02-18T08:05:33.710Z,7.07
2023-02-18T08:10:37.145Z,5.80
2023-02-18T08:15:42.185Z,6.33
2023-02-18T08:20:50.531Z,6.53
2023-02-18T08:25:55.099Z,5.77
2023-02-18T08:30:59.947Z,3.37
2023-02-18T08:36:10.484Z,2.23
2023-02-18T08:41:14.933Z,3.67
2023-02-18T08:46:24.826Z,3.17
2023-02-18T08:51:37.176Z,1.47
2023-02-18T08:56:40.816Z,0.93
2023-02-18T09:01:45.766Z,1.97
2023-02-18T09:06:50.152Z,4.27
2023-02-18T09:11:54.722Z,2.90
2023-02-18T09:17:00.041Z,1.50
2023-02-18T09:22:03.216Z,0.83
2023-02-18T09:27:06.716Z,1.40
2023-02-18T09:32:14.507Z,0.87
2023-02-18T09:37:23.071Z,0.97
2023-02-18T09:42:32.524Z,0.57
2023-02-18T09:47:40.435Z,0.77
2023-02-18T09:52:43.871Z,0.50
2023-02-18T09:57:50.202Z,0.75
2023-02-18T10:03:01.476Z,0.50
2023-02-18T10:08:07.343Z,1.40
2023-02-18T10:13:15.681Z,0.40
2023-02-18T10:18:27.482Z,0.63
2023-02-18T10:23:33.020Z,0.50
2023-02-18T10:28:38.774Z,0.30
2023-02-18T10:33:48.631Z,1.30
2023-02-18T10:39:15.371Z,0.73
2023-02-18T10:44:25.681Z,1.20
2023-02-18T10:49:56.926Z,0.52
2023-02-18T10:55:05.095Z,0.30
2023-02-18T11:00:19.026Z,0.60
2023-02-18T11:05:25.877Z,0.30
2023-02-18T11:10:33.696Z,0.30
2023-02-18T11:15:38.119Z,0.60
2023-02-18T11:20:43.179Z,0.20
2023-02-18T11:26:03.557Z,1.85
2023-02-18T11:31:07.252Z,1.48
2023-02-18T11:36:20.905Z,0.63
2023-02-18T11:41:33.289Z,0.43
2023-02-18T11:46:36.498Z,0.82
2023-02-18T11:51:41.594Z,0.68
2023-02-18T11:56:57.178Z,0.30
2023-02-18T12:02:10.586Z,0.35
2023-02-18T12:07:21.738Z,0.30
2023-02-18T12:12:29.611Z,0.50
2023-02-18T12:17:46.776Z,0.50
2023-02-18T12:22:59.259Z,0.60
2023-02-18T12:28:19.314Z,0.30
2023-02-18T12:33:31.849Z,0.73
2023-02-18T12:39:00.599Z,1.08
2023-02-18T12:44:17.778Z,0.90
2023-02-18T12:49:46.197Z,0.30
2023-02-18T12:55:09.507Z,0.50
2023-02-18T13:00:34.183Z,0.40
2023-02-18T13:05:46.013Z,0.47
2023-02-18T13:11:12.515Z,0.40
2023-02-18T13:16:30.294Z,0.52
2023-02-18T13:21:45.087Z,0.55
2023-02-18T13:27:00.942Z,0.60
2023-02-18T13:32:19.401Z,1.98
2023-02-18T13:37:34.626Z,0.68
2023-02-18T13:42:49.198Z,0.82
2023-02-18T13:47:56.829Z,0.70
2023-02-18T13:53:32.376Z,0.60
2023-02-18T13:58:43.812Z,1.17
2023-02-18T14:04:06.403Z,1.00
2023-02-18T14:09:41.781Z,1.00
2023-02-18T14:14:46.939Z,0.90
2023-02-18T14:19:55.219Z,2.00
2023-02-18T14:25:07.095Z,1.30
2023-02-18T14:30:21.985Z,1.58
2023-02-18T14:35:38.614Z,1.58
2023-02-18T14:41:08.916Z,2.05
2023-02-18T14:46:40.321Z,0.77
2023-02-18T14:51:48.189Z,2.60
2023-02-18T14:56:57.502Z,2.42
2023-02-18T15:02:02.226Z,0.80
2023-02-18T15:07:12.670Z,1.70
2023-02-18T15:12:20.181Z,2.67
2023-02-18T15:17:27.843Z,0.60
2023-02-18T15:22:35.178Z,1.30
2023-02-18T15:27:44.454Z,3.00
2023-02-18T15:32:52.639Z,1.75
2023-02-18T15:37:58.289Z,1.88
2023-02-18T15:43:05.361Z,1.05
2023-02-18T15:48:24.757Z,0.47
2023-02-18T15:53:31.448Z,1.15
2023-02-18T15:58:35.593Z,0.88
2023-02-18T16:03:52.620Z,0.63
2023-02-18T16:09:01.425Z,0.45
2023-02-18T16:14:06.140Z,2.33
2023-02-18T16:19:25.527Z,0.50
2023-02-18T16:24:41.505Z,1.13
2023-02-18T16:29:45.951Z,0.98
2023-02-18T16:34:50.766Z,0.40
2023-02-18T16:39:55.357Z,0.55
2023-02-18T16:44:58.864Z,1.58
2023-02-18T16:50:03.711Z,1.08
2023-02-18T16:55:19.320Z,0.70
2023-02-18T17:00:24.274Z,1.15
2023-02-18T17:05:32.271Z,1.35
2023-02-18T17:10:36.629Z,1.02
2023-02-18T17:15:40.642Z,0.98
2023-02-18T17:20:48.388Z,0.98
2023-02-18T17:25:52.868Z,2.42
2023-02-18T17:30:59.846Z,1.70
2023-02-18T17:36:04.780Z,2.47
2023-02-18T17:41:09.077Z,2.28
2023-02-18T17:46:15.055Z,1.23
2023-02-18T17:51:27.176Z,1.77
2023-02-18T17:56:30.684Z,2.15
2023-02-18T18:01:35.417Z,1.73
2023-02-18T18:06:40.165Z,2.45
2023-02-18T18:11:43.630Z,1.25
2023-02-18T18:16:47.330Z,1.33
2023-02-18T18:21:54.210Z,2.00
2023-02-18T18:26:58.714Z,2.20
2023-02-18T18:32:02.714Z,2.20
2023-02-18T18:37:09.964Z,1.67
2023-02-18T18:42:13.909Z,1.33
2023-02-18T18:47:17.011Z,2.40
2023-02-18T18:52:22.222Z,1.58
2023-02-18T18:57:25.596Z,2.27
2023-02-18T19:02:28.843Z,1.57
2023-02-18T19:07:34.140Z,1.30
2023-02-18T19:12:37.271Z,1.73
2023-02-18T19:17:40.266Z,2.53
2023-02-18T19:22:45.039Z,1.90
2023-02-18T19:27:49.581Z,1.40
2023-02-18T19:32:54.249Z,3.27
2023-02-18T19:37:59.336Z,1.60
2023-02-18T19:43:07.396Z,1.60
2023-02-18T19:48:11.449Z,2.50
2023-02-18T19:53:19.428Z,1.57
2023-02-18T19:58:23.041Z,2.03
2023-02-18T20:03:26.492Z,1.60
2023-02-18T20:08:36.818Z,1.73
2023-02-18T20:13:49.619Z,1.77
2023-02-18T20:18:54.070Z,2.03
2023-02-18T20:23:59.056Z,1.80
2023-02-18T20:29:02.210Z,3.07
2023-02-18T20:34:05.466Z,3.23
2023-02-18T20:39:16.594Z,2.40
2023-02-18T20:44:21.303Z,2.67
2023-02-18T20:49:24.548Z,2.13
2023-02-18T20:54:29.763Z,2.17
2023-02-18T20:59:35.866Z,2.60
2023-02-18T21:04:39.037Z,2.83
2023-02-18T21:09:43.521Z,2.37
2023-02-18T21:14:46.930Z,3.33
2023-02-18T21:19:50.390Z,2.57
2023-02-18T21:24:55.038Z,2.67
2023-02-18T21:30:00.378Z,3.33
2023-02-18T21:35:04.254Z,3.67
2023-02-18T21:40:09.669Z,3.23
2023-02-18T21:45:17.076Z,3.20
2023-02-18T21:50:20.787Z,3.60
2023-02-18T21:55:26.286Z,4.30
2023-02-18T22:00:29.825Z,4.87
2023-02-18T22:05:33.051Z,3.60
2023-02-18T22:10:43.328Z,5.00
2023-02-18T22:15:46.541Z,4.30
2023-02-18T22:20:50.814Z,3.40
2023-02-18T22:25:55.336Z,5.20
2023-02-18T22:30:58.520Z,4.30
2023-02-18T22:36:02.490Z,3.70
2023-02-18T22:41:08.507Z,7.97
2023-02-18T22:46:13.903Z,5.23
2023-02-18T22:51:19.390Z,5.83
2023-02-18T22:56:26.170Z,4.80
2023-02-18T23:01:31.230Z,5.30
2023-02-18T23:06:34.520Z,5.00
2023-02-18T23:11:39.067Z,4.17
2023-02-18T23:17:01.106Z,5.47
2023-02-18T23:22:04.524Z,6.30
2023-02-18T23:27:10.897Z,7.57
2023-02-18T23:32:14.184Z,5.50
2023-02-18T23:37:17.370Z,4.33
2023-02-18T23:42:21.816Z,4.13
2023-02-18T23:47:25.104Z,5.13
2023-02-18T23:52:28.295Z,5.30
2023-02-18T23:57:33.530Z,6.50
